Buena Park, California
Current Conditions -  °F | °C
As of 4:53 PM on Wednesday 22 Oct 2014 (Local Time) from KFUL Reporting Station
Clear Clear  
Wind Chill: 81°   Ceiling: Unl
Heat Index: 81°   Visibility: 10mi
Dew Point: 58°   Wind: 9mph
Humidity: 45%   Direction: 190°S
Pressure: 29.87"   Gusts: NA
Location:  33.86°N, 117.99°W
Report Text: KFUL 222353Z 19008KT 10SM CLR 27/14 A2987 RMK AO2 SLP113 T02720144 10300 20239 58002
Loading
Personal Weather Stations






























Interactive Weather Map
Tropical Storm Tracking
New forecast layout! Learn more

10-Day Weather Forecast

Advertisements
Track Severe Weather on mobile